sensor_id;sensor_type;location;lat;lon;timestamp;pressure;altitude;pressure_sealevel;temperature;humidity
19789;BME280;10054;59.332;18.244;2022-10-28T00:01:30;101084.51;;;11.08;100.00
19789;BME280;10054;59.332;18.244;2022-10-28T00:04:00;101074.89;;;11.07;100.00
19789;BME280;10054;59.332;18.244;2022-10-28T00:06:32;101081.02;;;11.07;100.00
19789;BME280;10054;59.332;18.244;2022-10-28T00:09:02;101082.05;;;11.05;100.00
19789;BME280;10054;59.332;18.244;2022-10-28T00:11:32;101084.30;;;11.04;100.00
19789;BME280;10054;59.332;18.244;2022-10-28T00:14:04;101079.66;;;11.00;100.00
19789;BME280;10054;59.332;18.244;2022-10-28T00:16:35;101074.73;;;10.94;100.00
19789;BME280;10054;59.332;18.244;2022-10-28T00:19:05;101074.35;;;10.93;100.00
19789;BME280;10054;59.332;18.244;2022-10-28T00:21:36;101082.36;;;10.92;100.00
19789;BME280;10054;59.332;18.244;2022-10-28T00:24:06;101076.31;;;10.90;100.00
19789;BME280;10054;59.332;18.244;2022-10-28T00:26:37;101074.23;;;10.88;100.00
19789;BME280;10054;59.332;18.244;2022-10-28T00:29:08;101080.53;;;10.85;100.00
19789;BME280;10054;59.332;18.244;2022-10-28T00:31:38;101076.19;;;10.84;100.00
19789;BME280;10054;59.332;18.244;2022-10-28T00:34:14;101080.15;;;10.84;100.00
19789;BME280;10054;59.332;18.244;2022-10-28T00:36:39;101079.30;;;10.83;100.00
19789;BME280;10054;59.332;18.244;2022-10-28T00:39:14;101077.98;;;10.83;100.00
19789;BME280;10054;59.332;18.244;2022-10-28T00:41:46;101068.73;;;10.83;100.00
19789;BME280;10054;59.332;18.244;2022-10-28T00:47:21;101062.98;;;10.84;100.00
19789;BME280;10054;59.332;18.244;2022-10-28T00:49:46;101058.09;;;10.85;100.00
19789;BME280;10054;59.332;18.244;2022-10-28T00:52:18;101063.38;;;10.85;100.00
19789;BME280;10054;59.332;18.244;2022-10-28T00:54:48;101059.33;;;10.86;100.00
19789;BME280;10054;59.332;18.244;2022-10-28T00:57:21;101054.90;;;10.87;100.00
19789;BME280;10054;59.332;18.244;2022-10-28T00:59:51;101057.92;;;10.88;100.00
19789;BME280;10054;59.332;18.244;2022-10-28T01:02:20;101061.41;;;10.89;100.00
19789;BME280;10054;59.332;18.244;2022-10-28T01:04:50;101060.01;;;10.90;100.00
19789;BME280;10054;59.332;18.244;2022-10-28T01:07:19;101067.37;;;10.92;100.00
19789;BME280;10054;59.332;18.244;2022-10-28T01:09:48;101060.21;;;10.94;100.00
19789;BME280;10054;59.332;18.244;2022-10-28T01:12:34;101052.67;;;10.95;100.00
19789;BME280;10054;59.332;18.244;2022-10-28T01:15:29;101053.05;;;10.96;100.00
19789;BME280;10054;59.332;18.244;2022-10-28T01:21:16;101058.08;;;11.01;100.00
19789;BME280;10054;59.332;18.244;2022-10-28T01:32:05;101049.51;;;11.04;100.00
19789;BME280;10054;59.332;18.244;2022-10-28T01:34:57;101060.83;;;11.06;100.00
19789;BME280;10054;59.332;18.244;2022-10-28T01:37:34;101064.70;;;11.08;100.00
19789;BME280;10054;59.332;18.244;2022-10-28T01:40:11;101058.11;;;11.08;100.00
19789;BME280;10054;59.332;18.244;2022-10-28T01:42:43;101060.19;;;11.10;100.00
19789;BME280;10054;59.332;18.244;2022-10-28T01:45:32;101062.36;;;11.10;100.00
19789;BME280;10054;59.332;18.244;2022-10-28T01:48:02;101068.88;;;11.12;100.00
19789;BME280;10054;59.332;18.244;2022-10-28T01:50:43;101063.59;;;11.12;100.00
19789;BME280;10054;59.332;18.244;2022-10-28T01:53:14;101068.41;;;11.12;100.00
19789;BME280;10054;59.332;18.244;2022-10-28T01:55:45;101066.99;;;11.14;100.00
19789;BME280;10054;59.332;18.244;2022-10-28T01:58:17;101069.13;;;11.14;100.00
19789;BME280;10054;59.332;18.244;2022-10-28T02:00:47;101064.83;;;11.13;100.00
19789;BME280;10054;59.332;18.244;2022-10-28T02:03:17;101065.17;;;11.14;100.00
19789;BME280;10054;59.332;18.244;2022-10-28T02:05:56;101059.80;;;11.16;100.00
19789;BME280;10054;59.332;18.244;2022-10-28T02:08:43;101059.80;;;11.16;100.00
19789;BME280;10054;59.332;18.244;2022-10-28T02:30:19;101049.53;;;11.18;100.00
19789;BME280;10054;59.332;18.244;2022-10-28T02:32:51;101051.23;;;11.19;100.00
19789;BME280;10054;59.332;18.244;2022-10-28T02:35:32;101051.14;;;11.21;100.00
19789;BME280;10054;59.332;18.244;2022-10-28T02:38:03;101050.67;;;11.22;100.00
19789;BME280;10054;59.332;18.244;2022-10-28T02:40:34;101050.20;;;11.22;100.00
19789;BME280;10054;59.332;18.244;2022-10-28T02:43:06;101047.47;;;11.24;100.00
19789;BME280;10054;59.332;18.244;2022-10-28T02:45:40;101043.52;;;11.24;100.00
19789;BME280;10054;59.332;18.244;2022-10-28T02:48:16;101034.63;;;11.17;100.00
19789;BME280;10054;59.332;18.244;2022-10-28T02:50:47;101034.63;;;11.17;100.00
19789;BME280;10054;59.332;18.244;2022-10-28T02:53:22;101042.66;;;11.23;100.00
19789;BME280;10054;59.332;18.244;2022-10-28T02:55:52;101049.27;;;11.23;100.00
19789;BME280;10054;59.332;18.244;2022-10-28T02:58:23;101043.05;;;11.24;100.00
19789;BME280;10054;59.332;18.244;2022-10-28T03:00:51;101044.36;;;11.24;100.00
19789;BME280;10054;59.332;18.244;2022-10-28T03:03:21;101044.36;;;11.24;100.00
19789;BME280;10054;59.332;18.244;2022-10-28T03:05:49;101041.81;;;11.23;100.00
19789;BME280;10054;59.332;18.244;2022-10-28T03:08:19;101040.87;;;11.24;100.00
19789;BME280;10054;59.332;18.244;2022-10-28T03:10:48;101040.41;;;11.24;100.00
19789;BME280;10054;59.332;18.244;2022-10-28T03:13:17;101039.55;;;11.24;100.00
19789;BME280;10054;59.332;18.244;2022-10-28T03:15:46;101040.87;;;11.24;100.00
19789;BME280;10054;59.332;18.244;2022-10-28T03:18:15;101048.33;;;11.24;100.00
19789;BME280;10054;59.332;18.244;2022-10-28T03:20:44;101036.82;;;11.25;100.00
19789;BME280;10054;59.332;18.244;2022-10-28T03:23:13;101032.01;;;11.25;100.00
19789;BME280;10054;59.332;18.244;2022-10-28T03:25:41;101032.01;;;11.25;100.00
19789;BME280;10054;59.332;18.244;2022-10-28T03:28:10;101031.07;;;11.26;100.00
19789;BME280;10054;59.332;18.244;2022-10-28T03:30:39;101030.78;;;11.23;100.00
19789;BME280;10054;59.332;18.244;2022-10-28T03:33:08;101025.02;;;11.24;100.00
19789;BME280;10054;59.332;18.244;2022-10-28T03:35:37;101024.64;;;11.23;100.00
19789;BME280;10054;59.332;18.244;2022-10-28T03:38:06;101024.64;;;11.23;100.00
19789;BME280;10054;59.332;18.244;2022-10-28T03:40:35;101021.06;;;11.24;100.00
19789;BME280;10054;59.332;18.244;2022-10-28T03:43:03;101026.81;;;11.23;100.00
19789;BME280;10054;59.332;18.244;2022-10-28T03:45:32;101025.88;;;11.24;100.00
19789;BME280;10054;59.332;18.244;2022-10-28T03:48:01;101022.77;;;11.25;100.00
19789;BME280;10054;59.332;18.244;2022-10-28T03:50:29;101020.50;;;11.26;100.00
19789;BME280;10054;59.332;18.244;2022-10-28T03:52:58;101021.27;;;11.28;100.00
19789;BME280;10054;59.332;18.244;2022-10-28T03:55:27;101017.86;;;11.26;100.00
19789;BME280;10054;59.332;18.244;2022-10-28T03:58:00;101021.45;;;11.25;100.00
19789;BME280;10054;59.332;18.244;2022-10-28T04:00:29;101013.91;;;11.26;100.00
19789;BME280;10054;59.332;18.244;2022-10-28T04:02:58;101015.60;;;11.27;100.00
19789;BME280;10054;59.332;18.244;2022-10-28T04:05:27;101020.41;;;11.27;100.00
19789;BME280;10054;59.332;18.244;2022-10-28T04:07:56;101020.41;;;11.27;100.00
19789;BME280;10054;59.332;18.244;2022-10-28T04:10:25;101020.03;;;11.26;100.00
19789;BME280;10054;59.332;18.244;2022-10-28T04:12:59;101021.35;;;11.26;100.00
19789;BME280;10054;59.332;18.244;2022-10-28T04:15:28;101020.41;;;11.27;100.00
19789;BME280;10054;59.332;18.244;2022-10-28T04:17:57;101014.28;;;11.27;100.00
19789;BME280;10054;59.332;18.244;2022-10-28T04:20:26;101008.53;;;11.27;100.00
19789;BME280;10054;59.332;18.244;2022-10-28T04:22:55;101005.04;;;11.27;100.00
19789;BME280;10054;59.332;18.244;2022-10-28T04:25:25;101003.34;;;11.26;100.00
19789;BME280;10054;59.332;18.244;2022-10-28T04:27:55;100998.81;;;11.28;100.00
19789;BME280;10054;59.332;18.244;2022-10-28T04:30:24;100988.25;;;11.28;100.00
19789;BME280;10054;59.332;18.244;2022-10-28T04:32:52;100988.25;;;11.28;100.00
19789;BME280;10054;59.332;18.244;2022-10-28T04:35:21;100986.17;;;11.26;100.00
19789;BME280;10054;59.332;18.244;2022-10-28T04:37:50;100983.53;;;11.26;100.00
19789;BME280;10054;59.332;18.244;2022-10-28T04:40:19;100971.27;;;11.25;100.00
19789;BME280;10054;59.332;18.244;2022-10-28T04:42:48;100969.09;;;11.24;100.00
19789;BME280;10054;59.332;18.244;2022-10-28T04:45:17;100969.09;;;11.24;100.00
19789;BME280;10054;59.332;18.244;2022-10-28T04:47:46;100973.63;;;11.22;100.00
19789;BME280;10054;59.332;18.244;2022-10-28T04:50:15;100969.28;;;11.21;100.00
19789;BME280;10054;59.332;18.244;2022-10-28T04:52:44;100965.70;;;11.22;100.00
19789;BME280;10054;59.332;18.244;2022-10-28T04:55:13;100966.16;;;11.22;100.00
19789;BME280;10054;59.332;18.244;2022-10-28T04:57:43;100967.48;;;11.22;100.00
19789;BME280;10054;59.332;18.244;2022-10-28T05:00:13;100960.31;;;11.16;100.00
19789;BME280;10054;59.332;18.244;2022-10-28T05:02:42;100962.77;;;11.19;100.00
19789;BME280;10054;59.332;18.244;2022-10-28T05:05:10;100953.70;;;11.16;100.00
19789;BME280;10054;59.332;18.244;2022-10-28T05:07:41;100958.98;;;11.16;100.00
19789;BME280;10054;59.332;18.244;2022-10-28T05:10:10;100953.70;;;11.16;100.00
19789;BME280;10054;59.332;18.244;2022-10-28T05:12:42;100955.03;;;11.16;100.00
19789;BME280;10054;59.332;18.244;2022-10-28T05:15:12;100954.65;;;11.15;100.00
19789;BME280;10054;59.332;18.244;2022-10-28T05:17:45;100955.59;;;11.14;100.00
19789;BME280;10054;59.332;18.244;2022-10-28T05:20:16;100955.12;;;11.15;100.00
19789;BME280;10054;59.332;18.244;2022-10-28T05:22:46;100951.28;;;11.13;100.00
19789;BME280;10054;59.332;18.244;2022-10-28T05:25:16;100950.91;;;11.12;100.00
19789;BME280;10054;59.332;18.244;2022-10-28T05:27:45;100952.22;;;11.12;100.00
19789;BME280;10054;59.332;18.244;2022-10-28T05:30:14;100949.67;;;11.11;100.00
19789;BME280;10054;59.332;18.244;2022-10-28T05:32:43;100954.10;;;11.10;100.00
19789;BME280;10054;59.332;18.244;2022-10-28T05:35:12;100952.41;;;11.09;100.00
19789;BME280;10054;59.332;18.244;2022-10-28T05:37:41;100946.27;;;11.09;100.00
19789;BME280;10054;59.332;18.244;2022-10-28T05:40:11;100943.63;;;11.09;100.00
19789;BME280;10054;59.332;18.244;2022-10-28T05:42:43;100944.95;;;11.09;100.00
19789;BME280;10054;59.332;18.244;2022-10-28T05:45:12;100947.59;;;11.09;100.00
19789;BME280;10054;59.332;18.244;2022-10-28T05:47:45;100942.02;;;11.06;100.00
19789;BME280;10054;59.332;18.244;2022-10-28T05:50:16;100952.41;;;11.09;100.00
19789;BME280;10054;59.332;18.244;2022-10-28T05:52:54;100946.18;;;11.10;100.00
19789;BME280;10054;59.332;18.244;2022-10-28T05:55:25;100946.18;;;11.10;100.00
19789;BME280;10054;59.332;18.244;2022-10-28T05:57:55;100940.81;;;11.12;100.00
19789;BME280;10054;59.332;18.244;2022-10-28T06:00:24;100938.64;;;11.11;100.00
19789;BME280;10054;59.332;18.244;2022-10-28T06:03:08;100939.58;;;11.10;100.00
19789;BME280;10054;59.332;18.244;2022-10-28T06:05:39;100928.55;;;11.11;100.00
19789;BME280;10054;59.332;18.244;2022-10-28T06:08:13;100931.56;;;11.12;100.00
19789;BME280;10054;59.332;18.244;2022-10-28T06:10:48;100928.55;;;11.11;100.00
19789;BME280;10054;59.332;18.244;2022-10-28T06:13:13;100930.72;;;11.11;100.00
19789;BME280;10054;59.332;18.244;2022-10-28T06:15:42;100932.04;;;11.11;100.00
19789;BME280;10054;59.332;18.244;2022-10-28T06:18:11;100925.81;;;11.12;100.00
19789;BME280;10054;59.332;18.244;2022-10-28T06:20:40;100926.67;;;11.13;100.00
19789;BME280;10054;59.332;18.244;2022-10-28T06:23:09;100927.52;;;11.13;100.00
19789;BME280;10054;59.332;18.244;2022-10-28T06:25:38;100930.03;;;11.15;100.00
19789;BME280;10054;59.332;18.244;2022-10-28T06:28:07;100924.97;;;11.12;100.00
19789;BME280;10054;59.332;18.244;2022-10-28T06:30:36;100917.89;;;11.12;100.00
19789;BME280;10054;59.332;18.244;2022-10-28T06:33:05;100908.56;;;11.14;100.00
19789;BME280;10054;59.332;18.244;2022-10-28T06:35:34;100908.56;;;11.14;100.00
19789;BME280;10054;59.332;18.244;2022-10-28T06:38:03;100917.68;;;11.15;100.00
19789;BME280;10054;59.332;18.244;2022-10-28T06:40:31;100915.98;;;11.14;100.00
19789;BME280;10054;59.332;18.244;2022-10-28T06:43:02;100912.02;;;11.14;100.00
19789;BME280;10054;59.332;18.244;2022-10-28T06:45:33;100908.91;;;11.15;100.00
19789;BME280;10054;59.332;18.244;2022-10-28T06:48:04;100913.25;;;11.16;100.00
19789;BME280;10054;59.332;18.244;2022-10-28T06:50:34;100910.98;;;11.17;100.00
19789;BME280;10054;59.332;18.244;2022-10-28T06:53:02;100911.93;;;11.16;100.00
19789;BME280;10054;59.332;18.244;2022-10-28T06:55:31;100912.78;;;11.16;100.00
19789;BME280;10054;59.332;18.244;2022-10-28T06:58:01;100912.69;;;11.18;100.00
19789;BME280;10054;59.332;18.244;2022-10-28T07:00:31;100908.63;;;11.19;100.00
19789;BME280;10054;59.332;18.244;2022-10-28T07:03:00;100906.38;;;11.20;100.00
19789;BME280;10054;59.332;18.244;2022-10-28T07:05:29;100911.27;;;11.19;100.00
19789;BME280;10054;59.332;18.244;2022-10-28T07:07:57;100907.31;;;11.19;100.00
19789;BME280;10054;59.332;18.244;2022-10-28T07:10:27;100907.69;;;11.20;100.00
19789;BME280;10054;59.332;18.244;2022-10-28T07:12:56;100909.77;;;11.23;100.00
19789;BME280;10054;59.332;18.244;2022-10-28T07:15:25;100915.80;;;11.25;100.00
19789;BME280;10054;59.332;18.244;2022-10-28T07:17:54;100912.70;;;11.25;100.00
19789;BME280;10054;59.332;18.244;2022-10-28T07:20:25;100903.36;;;11.27;100.00
19789;BME280;10054;59.332;18.244;2022-10-28T07:22:56;100905.44;;;11.29;100.00
19789;BME280;10054;59.332;18.244;2022-10-28T07:25:26;100910.06;;;11.32;100.00
19789;BME280;10054;59.332;18.244;2022-10-28T07:27:59;100913.45;;;11.34;100.00
19789;BME280;10054;59.332;18.244;2022-10-28T07:30:28;100884.87;;;11.27;100.00
19789;BME280;10054;59.332;18.244;2022-10-28T07:32:57;100884.87;;;11.27;100.00
19789;BME280;10054;59.332;18.244;2022-10-28T07:35:28;100902.52;;;11.40;100.00
19789;BME280;10054;59.332;18.244;2022-10-28T07:37:57;100904.50;;;11.44;100.00
19789;BME280;10054;59.332;18.244;2022-10-28T07:40:26;100897.80;;;11.45;100.00
19789;BME280;10054;59.332;18.244;2022-10-28T07:42:56;100897.80;;;11.45;100.00
19789;BME280;10054;59.332;18.244;2022-10-28T07:45:26;100904.87;;;11.52;100.00
19789;BME280;10054;59.332;18.244;2022-10-28T07:47:54;100900.81;;;11.53;100.00
19789;BME280;10054;59.332;18.244;2022-10-28T07:50:23;100896.48;;;11.52;100.00
19789;BME280;10054;59.332;18.244;2022-10-28T07:52:52;100900.06;;;11.59;100.00
19789;BME280;10054;59.332;18.244;2022-10-28T07:55:21;100893.27;;;11.62;100.00
19789;BME280;10054;59.332;18.244;2022-10-28T07:57:50;100890.06;;;11.57;100.00
19789;BME280;10054;59.332;18.244;2022-10-28T08:00:18;100900.91;;;11.59;100.00
19789;BME280;10054;59.332;18.244;2022-10-28T08:02:48;100882.32;;;11.53;100.00
19789;BME280;10054;59.332;18.244;2022-10-28T08:05:17;100889.68;;;11.63;100.00
19789;BME280;10054;59.332;18.244;2022-10-28T08:07:46;100889.68;;;11.63;100.00
19789;BME280;10054;59.332;18.244;2022-10-28T08:10:15;100887.69;;;11.66;100.00
19789;BME280;10054;59.332;18.244;2022-10-28T08:12:44;100880.05;;;11.62;100.00
19789;BME280;10054;59.332;18.244;2022-10-28T08:15:13;100875.80;;;11.66;100.00
19789;BME280;10054;59.332;18.244;2022-10-28T08:17:43;100881.08;;;11.73;100.00
19789;BME280;10054;59.332;18.244;2022-10-28T08:20:11;100887.89;;;11.84;100.00
19789;BME280;10054;59.332;18.244;2022-10-28T08:22:41;100887.89;;;11.84;100.00
19789;BME280;10054;59.332;18.244;2022-10-28T08:25:09;100880.38;;;11.91;100.00
19789;BME280;10054;59.332;18.244;2022-10-28T08:27:38;100881.04;;;11.95;100.00
19789;BME280;10054;59.332;18.244;2022-10-28T08:30:09;100879.89;;;11.99;100.00
19789;BME280;10054;59.332;18.244;2022-10-28T08:32:38;100882.14;;;12.05;100.00
19789;BME280;10054;59.332;18.244;2022-10-28T08:35:08;100873.91;;;12.09;100.00
19789;BME280;10054;59.332;18.244;2022-10-28T08:37:36;100868.43;;;12.12;100.00
19789;BME280;10054;59.332;18.244;2022-10-28T08:40:07;100869.28;;;12.13;100.00
19789;BME280;10054;59.332;18.244;2022-10-28T08:42:50;100867.37;;;12.15;100.00
19789;BME280;10054;59.332;18.244;2022-10-28T08:48:19;100857.83;;;12.20;100.00
19789;BME280;10054;59.332;18.244;2022-10-28T08:51:02;100850.73;;;12.20;100.00
19789;BME280;10054;59.332;18.244;2022-10-28T08:53:27;100843.85;;;12.17;100.00
19789;BME280;10054;59.332;18.244;2022-10-28T08:56:06;100850.19;;;12.15;100.00
19789;BME280;10054;59.332;18.244;2022-10-28T08:58:35;100858.50;;;12.16;100.00
19789;BME280;10054;59.332;18.244;2022-10-28T09:01:08;100865.02;;;12.17;100.00
19789;BME280;10054;59.332;18.244;2022-10-28T09:03:39;100861.97;;;12.24;100.00
19789;BME280;10054;59.332;18.244;2022-10-28T09:06:09;100857.30;;;12.34;100.00
19789;BME280;10054;59.332;18.244;2022-10-28T09:08:43;100857.84;;;12.39;100.00
19789;BME280;10054;59.332;18.244;2022-10-28T09:16:49;100861.95;;;12.50;100.00
19789;BME280;10054;59.332;18.244;2022-10-28T09:19:39;100859.20;;;12.52;100.00
19789;BME280;10054;59.332;18.244;2022-10-28T09:24:55;100855.94;;;12.61;100.00
19789;BME280;10054;59.332;18.244;2022-10-28T09:27:59;100854.98;;;12.62;100.00
19789;BME280;10054;59.332;18.244;2022-10-28T09:33:24;100850.30;;;12.66;100.00
19789;BME280;10054;59.332;18.244;2022-10-28T09:35:50;100841.78;;;12.68;100.00
19789;BME280;10054;59.332;18.244;2022-10-28T09:38:29;100843.37;;;12.70;100.00
19789;BME280;10054;59.332;18.244;2022-10-28T09:41:01;100841.84;;;12.73;100.00
19789;BME280;10054;59.332;18.244;2022-10-28T09:43:37;100854.97;;;12.75;100.00
19789;BME280;10054;59.332;18.244;2022-10-28T09:46:14;100862.34;;;12.77;100.00
19789;BME280;10054;59.332;18.244;2022-10-28T09:48:51;100853.71;;;12.80;100.00
19789;BME280;10054;59.332;18.244;2022-10-28T09:51:46;100854.35;;;12.84;100.00
19789;BME280;10054;59.332;18.244;2022-10-28T09:54:15;100852.82;;;12.87;100.00
19789;BME280;10054;59.332;18.244;2022-10-28T09:56:45;100849.38;;;12.92;100.00
19789;BME280;10054;59.332;18.244;2022-10-28T09:59:15;100856.64;;;12.96;100.00
19789;BME280;10054;59.332;18.244;2022-10-28T10:01:44;100854.52;;;13.01;100.00
19789;BME280;10054;59.332;18.244;2022-10-28T10:04:27;100850.23;;;13.05;100.00
19789;BME280;10054;59.332;18.244;2022-10-28T10:06:55;100841.23;;;13.08;100.00
19789;BME280;10054;59.332;18.244;2022-10-28T10:09:31;100823.69;;;13.12;100.00
19789;BME280;10054;59.332;18.244;2022-10-28T10:12:01;100822.08;;;13.17;100.00
19789;BME280;10054;59.332;18.244;2022-10-28T10:14:37;100812.96;;;13.21;100.00
19789;BME280;10054;59.332;18.244;2022-10-28T10:17:04;100811.79;;;13.25;100.00
19789;BME280;10054;59.332;18.244;2022-10-28T10:19:57;100803.89;;;13.31;100.00
19789;BME280;10054;59.332;18.244;2022-10-28T10:28:13;100791.58;;;13.66;100.00
19789;BME280;10054;59.332;18.244;2022-10-28T10:30:56;100783.47;;;13.80;100.00
19789;BME280;10054;59.332;18.244;2022-10-28T10:33:20;100784.84;;;13.92;100.00
19789;BME280;10054;59.332;18.244;2022-10-28T10:36:11;100780.05;;;13.97;100.00
19789;BME280;10054;59.332;18.244;2022-10-28T10:38:25;100784.88;;;13.97;100.00
19789;BME280;10054;59.332;18.244;2022-10-28T10:40:55;100789.08;;;13.94;100.00
19789;BME280;10054;59.332;18.244;2022-10-28T10:43:32;100784.11;;;13.90;100.00
19789;BME280;10054;59.332;18.244;2022-10-28T10:46:12;100776.97;;;13.85;100.00
19789;BME280;10054;59.332;18.244;2022-10-28T10:48:41;100785.63;;;13.81;100.00
19789;BME280;10054;59.332;18.244;2022-10-28T10:51:22;100789.36;;;13.78;100.00
19789;BME280;10054;59.332;18.244;2022-10-28T10:53:56;100785.61;;;13.75;100.00
19789;BME280;10054;59.332;18.244;2022-10-28T10:56:30;100784.50;;;13.72;100.00
19789;BME280;10054;59.332;18.244;2022-10-28T10:59:14;100782.19;;;13.68;100.00
19789;BME280;10054;59.332;18.244;2022-10-28T11:01:36;100781.70;;;13.68;100.00
19789;BME280;10054;59.332;18.244;2022-10-28T11:04:07;100781.11;;;13.70;100.00
19789;BME280;10054;59.332;18.244;2022-10-28T11:06:39;100784.50;;;13.72;100.00
19789;BME280;10054;59.332;18.244;2022-10-28T11:09:35;100778.23;;;13.73;100.00
19789;BME280;10054;59.332;18.244;2022-10-28T11:12:23;100776.33;;;13.75;100.00
19789;BME280;10054;59.332;18.244;2022-10-28T11:14:58;100768.73;;;13.76;100.00
19789;BME280;10054;59.332;18.244;2022-10-28T11:17:30;100765.23;;;13.76;100.00
19789;BME280;10054;59.332;18.244;2022-10-28T11:31:11;100744.28;;;13.78;100.00
19789;BME280;10054;59.332;18.244;2022-10-28T11:39:18;100729.08;;;13.75;100.00
19789;BME280;10054;59.332;18.244;2022-10-28T11:42:05;100725.80;;;13.71;100.00
19789;BME280;10054;59.332;18.244;2022-10-28T11:44:49;100723.27;;;13.70;100.00
19789;BME280;10054;59.332;18.244;2022-10-28T11:47:26;100722.05;;;13.68;100.00
19789;BME280;10054;59.332;18.244;2022-10-28T11:50:06;100716.39;;;13.67;100.00
19789;BME280;10054;59.332;18.244;2022-10-28T11:53:00;100710.72;;;13.66;100.00
19789;BME280;10054;59.332;18.244;2022-10-28T11:58:31;100721.91;;;13.64;100.00
19789;BME280;10054;59.332;18.244;2022-10-28T12:06:14;100713.68;;;13.56;100.00
19789;BME280;10054;59.332;18.244;2022-10-28T12:14:31;100696.31;;;13.52;100.00
19789;BME280;10054;59.332;18.244;2022-10-28T12:17:04;100696.78;;;13.52;100.00
19789;BME280;10054;59.332;18.244;2022-10-28T12:19:33;100702.20;;;13.50;100.00
19789;BME280;10054;59.332;18.244;2022-10-28T12:22:12;100695.20;;;13.49;100.00
19789;BME280;10054;59.332;18.244;2022-10-28T12:24:43;100696.05;;;13.49;100.00
19789;BME280;10054;59.332;18.244;2022-10-28T12:27:33;100693.30;;;13.51;100.00
19789;BME280;10054;59.332;18.244;2022-10-28T12:30:14;100688.72;;;13.53;100.00
19789;BME280;10054;59.332;18.244;2022-10-28T12:32:33;100681.73;;;13.52;100.00
19789;BME280;10054;59.332;18.244;2022-10-28T12:35:18;100671.61;;;13.52;100.00
19789;BME280;10054;59.332;18.244;2022-10-28T12:37:50;100665.94;;;13.51;100.00
19789;BME280;10054;59.332;18.244;2022-10-28T12:40:34;100655.09;;;13.48;100.00
19789;BME280;10054;59.332;18.244;2022-10-28T12:45:47;100662.67;;;13.47;100.00
19789;BME280;10054;59.332;18.244;2022-10-28T12:48:48;100669.77;;;13.46;100.00
19789;BME280;10054;59.332;18.244;2022-10-28T12:51:30;100667.49;;;13.47;100.00
19789;BME280;10054;59.332;18.244;2022-10-28T12:53:54;100663.41;;;13.49;100.00
19789;BME280;10054;59.332;18.244;2022-10-28T12:56:38;100653.17;;;13.50;100.00
19789;BME280;10054;59.332;18.244;2022-10-28T12:59:34;100651.48;;;13.49;100.00
19789;BME280;10054;59.332;18.244;2022-10-28T13:02:00;100650.03;;;13.51;100.00
19789;BME280;10054;59.332;18.244;2022-10-28T13:04:30;100647.13;;;13.48;100.00
19789;BME280;10054;59.332;18.244;2022-10-28T13:10:22;100654.97;;;13.49;100.00
19789;BME280;10054;59.332;18.244;2022-10-28T13:26:25;100635.07;;;13.44;100.00
19789;BME280;10054;59.332;18.244;2022-10-28T13:29:01;100641.33;;;13.43;100.00
19789;BME280;10054;59.332;18.244;2022-10-28T13:31:44;100631.58;;;13.43;100.00
19789;BME280;10054;59.332;18.244;2022-10-28T13:34:09;100634.59;;;13.44;100.00
19789;BME280;10054;59.332;18.244;2022-10-28T13:36:44;100628.81;;;13.45;100.00
19789;BME280;10054;59.332;18.244;2022-10-28T13:44:51;100620.49;;;13.44;100.00
19789;BME280;10054;59.332;18.244;2022-10-28T13:47:34;100617.48;;;13.43;100.00
19789;BME280;10054;59.332;18.244;2022-10-28T13:55:39;100604.20;;;13.37;100.00
19789;BME280;10054;59.332;18.244;2022-10-28T13:58:04;100600.86;;;13.35;100.00
19789;BME280;10054;59.332;18.244;2022-10-28T14:00:35;100598.80;;;13.33;100.00
19789;BME280;10054;59.332;18.244;2022-10-28T14:03:15;100608.30;;;13.30;100.00
19789;BME280;10054;59.332;18.244;2022-10-28T14:11:03;100603.94;;;13.24;100.00
19789;BME280;10054;59.332;18.244;2022-10-28T14:13:33;100600.19;;;13.21;100.00
19789;BME280;10054;59.332;18.244;2022-10-28T14:19:05;100603.06;;;13.18;100.00
19789;BME280;10054;59.332;18.244;2022-10-28T14:22:25;100612.33;;;13.18;100.00
19789;BME280;10054;59.332;18.244;2022-10-28T14:24:37;100607.99;;;13.17;100.00
19789;BME280;10054;59.332;18.244;2022-10-28T14:29:47;100617.82;;;13.14;100.00
19789;BME280;10054;59.332;18.244;2022-10-28T14:35:12;100614.92;;;13.12;100.00
19789;BME280;10054;59.332;18.244;2022-10-28T14:40:46;100618.64;;;13.09;100.00
19789;BME280;10054;59.332;18.244;2022-10-28T14:48:49;100632.58;;;13.06;100.00
19789;BME280;10054;59.332;18.244;2022-10-28T14:51:24;100624.74;;;13.04;100.00
19789;BME280;10054;59.332;18.244;2022-10-28T14:53:58;100615.00;;;13.05;100.00
19789;BME280;10054;59.332;18.244;2022-10-28T14:56:29;100596.57;;;13.03;100.00
19789;BME280;10054;59.332;18.244;2022-10-28T14:59:20;100596.57;;;13.03;100.00
19789;BME280;10054;59.332;18.244;2022-10-28T15:01:45;100596.20;;;13.02;100.00
19789;BME280;10054;59.332;18.244;2022-10-28T15:04:10;100596.31;;;13.01;100.00
19789;BME280;10054;59.332;18.244;2022-10-28T15:06:43;100602.83;;;13.02;100.00
19789;BME280;10054;59.332;18.244;2022-10-28T15:09:18;100602.45;;;13.01;100.00
19789;BME280;10054;59.332;18.244;2022-10-28T15:11:54;100605.47;;;13.02;100.00
19789;BME280;10054;59.332;18.244;2022-10-28T15:14:25;100612.57;;;13.02;100.00